createdAt,value
2018-12-20T00:01:01.246Z,100606.31
2018-12-20T00:03:30.518Z,100612.80
2018-12-20T00:05:59.652Z,100609.05
2018-12-20T00:08:28.566Z,100611.73
2018-12-20T00:10:57.695Z,100615.40
2018-12-20T00:13:26.542Z,100612.12
2018-12-20T00:15:55.719Z,100608.46
2018-12-20T00:18:24.744Z,100613.42
2018-12-20T00:20:53.519Z,100610.37
2018-12-20T00:23:22.669Z,100610.91
2018-12-20T00:25:51.516Z,100612.35
2018-12-20T00:28:20.625Z,100611.45
2018-12-20T00:30:49.946Z,100614.41
2018-12-20T00:33:18.902Z,100613.06
2018-12-20T00:35:47.864Z,100615.09
2018-12-20T00:38:16.801Z,100609.76
2018-12-20T00:40:45.855Z,100607.61
2018-12-20T00:43:14.764Z,100612.89
2018-12-20T00:45:43.949Z,100606.23
2018-12-20T00:48:12.757Z,100598.84
2018-12-20T00:50:41.938Z,100597.32
2018-12-20T00:53:10.753Z,100604.57
2018-12-20T00:55:39.826Z,100604.80
2018-12-20T00:58:09.903Z,100603.49
2018-12-20T01:00:38.950Z,100601.66
2018-12-20T01:03:08.107Z,100606.23
2018-12-20T01:05:36.984Z,100605.29
2018-12-20T01:08:06.065Z,100608.64
2018-12-20T01:10:35.166Z,100610.79
2018-12-20T01:13:04.978Z,100605.45
2018-12-20T01:15:34.077Z,100598.58
2018-12-20T01:18:03.265Z,100603.23
2018-12-20T01:20:32.118Z,100602.38
2018-12-20T01:23:01.372Z,100603.84
2018-12-20T01:25:30.450Z,100592.16
2018-12-20T01:27:59.646Z,100605.59
2018-12-20T01:30:28.922Z,100606.89
2018-12-20T01:32:57.710Z,100596.33
2018-12-20T01:35:27.591Z,100599.02
2018-12-20T01:37:58.217Z,100602.00
2018-12-20T01:40:28.175Z,100598.02
2018-12-20T01:42:57.618Z,100598.33
2018-12-20T01:45:27.219Z,100598.55
2018-12-20T01:47:56.267Z,100598.82
2018-12-20T01:50:25.577Z,100596.17
2018-12-20T01:52:54.670Z,100593.84
2018-12-20T01:55:23.700Z,100603.78
2018-12-20T01:57:52.822Z,100599.77
2018-12-20T02:00:21.956Z,100600.59
2018-12-20T02:02:51.197Z,100595.25
2018-12-20T02:05:20.852Z,100593.77
2018-12-20T02:07:49.750Z,100596.31
2018-12-20T02:10:18.577Z,100594.47
2018-12-20T02:12:47.477Z,100595.50
2018-12-20T02:15:16.767Z,100586.35
2018-12-20T02:17:45.710Z,100592.30
2018-12-20T02:20:14.922Z,100591.66
2018-12-20T02:22:44.216Z,100596.53
2018-12-20T02:25:13.351Z,100589.95
2018-12-20T02:27:42.279Z,100588.64
2018-12-20T02:30:12.364Z,100583.36
2018-12-20T02:32:42.586Z,100583.66
2018-12-20T02:35:11.863Z,100581.45
2018-12-20T02:37:40.703Z,100579.22
2018-12-20T02:40:10.084Z,100577.38
2018-12-20T02:42:39.280Z,100578.58
2018-12-20T02:45:10.919Z,100578.58
2018-12-20T02:47:39.905Z,100577.38
2018-12-20T02:50:10.677Z,100576.92
2018-12-20T02:52:39.735Z,100575.63
2018-12-20T02:55:09.116Z,100577.77
2018-12-20T02:57:38.272Z,100571.88
2018-12-20T03:00:08.343Z,100572.81
2018-12-20T03:02:37.472Z,100574.88
2018-12-20T03:05:06.716Z,100571.88
2018-12-20T03:07:35.729Z,100574.03
2018-12-20T03:10:05.268Z,100569.28
2018-12-20T03:12:34.280Z,100566.78
2018-12-20T03:15:03.870Z,100558.14
2018-12-20T03:17:33.179Z,100563.34
2018-12-20T03:20:02.626Z,100563.06
2018-12-20T03:22:31.479Z,100560.08
2018-12-20T03:25:00.734Z,100561.08
2018-12-20T03:27:29.954Z,100554.42
2018-12-20T03:29:58.920Z,100556.18
2018-12-20T03:32:27.741Z,100560.83
2018-12-20T03:34:56.856Z,100560.83
2018-12-20T03:37:25.753Z,100557.78
2018-12-20T03:39:56.792Z,100557.87
2018-12-20T03:42:25.817Z,100554.52
2018-12-20T03:44:54.762Z,100557.93
2018-12-20T03:47:24.297Z,100554.52
2018-12-20T03:49:53.332Z,100549.69
2018-12-20T03:52:22.377Z,100541.53
2018-12-20T03:54:51.532Z,100540.80
2018-12-20T03:57:20.739Z,100545.09
2018-12-20T03:59:49.885Z,100549.74
2018-12-20T04:02:18.799Z,100544.91
2018-12-20T04:04:47.698Z,100544.55
2018-12-20T04:07:16.711Z,100549.89
2018-12-20T04:09:45.917Z,100547.69
2018-12-20T04:12:14.983Z,100553.03
2018-12-20T04:14:44.201Z,100553.34
2018-12-20T04:17:14.295Z,100547.69
2018-12-20T04:19:43.222Z,100543.79
2018-12-20T04:22:12.423Z,100547.69
2018-12-20T04:24:41.213Z,100542.61
2018-12-20T04:27:10.399Z,100543.91
2018-12-20T04:29:39.508Z,100543.70
2018-12-20T04:32:08.559Z,100539.41
2018-12-20T04:34:37.642Z,100538.95
2018-12-20T04:37:06.533Z,100533.95
2018-12-20T04:39:35.584Z,100538.95
2018-12-20T04:42:05.516Z,100549.44
2018-12-20T04:44:34.609Z,100546.75
2018-12-20T04:47:03.569Z,100545.84
2018-12-20T04:49:32.386Z,100543.52
2018-12-20T04:52:01.446Z,100550.01
2018-12-20T04:54:30.375Z,100551.70
2018-12-20T04:56:59.464Z,100551.61
2018-12-20T04:59:29.637Z,100545.11
2018-12-20T05:01:58.585Z,100551.04
2018-12-20T05:04:27.525Z,100549.65
2018-12-20T05:06:56.823Z,100549.65
2018-12-20T05:09:25.915Z,100543.81
2018-12-20T05:11:54.982Z,100548.55
2018-12-20T05:14:25.339Z,100543.66
2018-12-20T05:16:54.650Z,100541.61
2018-12-20T05:19:23.654Z,100544.41
2018-12-20T05:21:52.632Z,100544.02
2018-12-20T05:24:21.944Z,100544.66
2018-12-20T05:26:50.906Z,100544.27
2018-12-20T05:29:20.108Z,100547.89
2018-12-20T05:31:48.901Z,100540.46
2018-12-20T05:34:18.097Z,100538.11
2018-12-20T05:36:48.203Z,100546.00
2018-12-20T05:39:17.378Z,100552.67
2018-12-20T05:41:46.440Z,100552.73
2018-12-20T05:44:15.568Z,100552.92
2018-12-20T05:46:44.456Z,100554.31
2018-12-20T05:49:13.375Z,100551.77
2018-12-20T05:51:42.429Z,100556.70
2018-12-20T05:54:11.432Z,100559.20
2018-12-20T05:56:40.481Z,100554.55
2018-12-20T05:59:09.461Z,100558.54
2018-12-20T06:01:38.459Z,100554.70
2018-12-20T06:04:07.428Z,100560.95
2018-12-20T06:06:36.319Z,100563.64
2018-12-20T06:09:07.681Z,100566.69
2018-12-20T06:11:36.456Z,100562.49
2018-12-20T06:14:05.569Z,100571.22
2018-12-20T06:16:34.940Z,100572.61
2018-12-20T06:19:05.005Z,100575.20
2018-12-20T06:21:33.991Z,100579.10
2018-12-20T06:24:03.050Z,100578.38
2018-12-20T06:26:31.966Z,100576.50
2018-12-20T06:29:00.940Z,100577.95
2018-12-20T06:31:29.943Z,100576.50
2018-12-20T06:33:58.931Z,100580.98
2018-12-20T06:36:27.983Z,100578.08
2018-12-20T06:38:56.919Z,100580.98
2018-12-20T06:41:25.911Z,100574.03
2018-12-20T06:43:54.894Z,100578.14
2018-12-20T06:46:24.034Z,100581.94
2018-12-20T06:48:52.881Z,100575.00
2018-12-20T06:51:21.926Z,100583.23
2018-12-20T06:53:51.791Z,100582.34
2018-12-20T06:56:21.704Z,100576.66
2018-12-20T06:58:50.815Z,100579.73
2018-12-20T07:01:19.687Z,100577.59
2018-12-20T07:03:48.684Z,100582.16
2018-12-20T07:06:17.655Z,100577.05
2018-12-20T07:08:46.649Z,100582.03
2018-12-20T07:11:15.648Z,100576.59
2018-12-20T07:13:44.699Z,100585.14
2018-12-20T07:16:13.695Z,100581.31
2018-12-20T07:18:42.634Z,100580.40
2018-12-20T07:21:11.615Z,100582.45
2018-12-20T07:23:40.687Z,100584.05
2018-12-20T07:26:09.745Z,100585.14
2018-12-20T07:28:38.604Z,100589.04
2018-12-20T07:31:07.594Z,100584.96
2018-12-20T07:33:36.571Z,100585.14
2018-12-20T07:36:05.717Z,100584.33
2018-12-20T07:38:35.867Z,100587.86
2018-12-20T07:41:04.862Z,100585.47
2018-12-20T07:43:33.855Z,100589.19
2018-12-20T07:46:02.851Z,100584.74
2018-12-20T07:48:32.233Z,100582.98
2018-12-20T07:51:03.523Z,100586.19
2018-12-20T07:53:32.206Z,100585.44
2018-12-20T07:56:01.266Z,100582.98
2018-12-20T07:58:30.253Z,100582.89
2018-12-20T08:00:59.253Z,100581.33
2018-12-20T08:03:28.164Z,100580.03
2018-12-20T08:05:57.242Z,100586.04
2018-12-20T08:08:26.217Z,100593.23
2018-12-20T08:10:55.151Z,100594.34
2018-12-20T08:13:23.926Z,100592.20
2018-12-20T08:15:52.823Z,100589.36
2018-12-20T08:18:21.831Z,100587.36
2018-12-20T08:20:50.830Z,100593.57
2018-12-20T08:23:19.791Z,100595.36
2018-12-20T08:25:48.962Z,100604.45
2018-12-20T08:28:32.307Z,100606.11
2018-12-20T08:31:01.286Z,100599.71
2018-12-20T08:33:30.206Z,100602.22
2018-12-20T08:35:59.266Z,100608.20
2018-12-20T08:38:28.295Z,100611.86
2018-12-20T08:40:57.183Z,100612.05
2018-12-20T08:43:26.174Z,100612.70
2018-12-20T08:45:55.154Z,100616.70
2018-12-20T08:48:24.238Z,100614.16
2018-12-20T08:50:53.237Z,100618.05
2018-12-20T08:53:22.134Z,100620.17
2018-12-20T08:55:51.268Z,100625.95
2018-12-20T08:58:20.369Z,100623.80
2018-12-20T09:00:49.115Z,100623.25
2018-12-20T09:03:18.253Z,100631.35
2018-12-20T09:05:47.177Z,100624.85
2018-12-20T09:08:16.091Z,100626.91
2018-12-20T09:10:45.219Z,100633.50
2018-12-20T09:13:14.234Z,100638.60
2018-12-20T09:15:43.068Z,100643.80
2018-12-20T09:18:12.139Z,100640.45
2018-12-20T09:20:41.066Z,100642.14
2018-12-20T09:23:10.135Z,100643.44
2018-12-20T09:25:39.131Z,100639.15
2018-12-20T09:28:11.058Z,100642.59
2018-12-20T09:30:39.919Z,100642.95
2018-12-20T09:33:08.871Z,100645.83
2018-12-20T09:35:37.914Z,100638.78
2018-12-20T09:38:06.938Z,100638.19
2018-12-20T09:40:35.778Z,100638.94
2018-12-20T09:43:05.297Z,100637.94
2018-12-20T09:45:34.151Z,100633.59
2018-12-20T09:48:05.234Z,100639.59
2018-12-20T09:50:34.991Z,100634.59
2018-12-20T09:53:03.957Z,100640.99
2018-12-20T09:55:32.929Z,100638.03
2018-12-20T09:58:02.031Z,100641.95
2018-12-20T10:00:31.154Z,100637.70
2018-12-20T10:03:00.307Z,100635.21
2018-12-20T10:05:29.307Z,100644.13
2018-12-20T10:07:58.122Z,100640.89
2018-12-20T10:10:27.174Z,100637.13
2018-12-20T10:12:56.162Z,100636.19
2018-12-20T10:15:25.034Z,100633.44
2018-12-20T10:17:54.268Z,100636.23
2018-12-20T10:20:23.406Z,100626.05
2018-12-20T10:22:52.331Z,100629.45
2018-12-20T10:25:21.457Z,100634.95
2018-12-20T10:27:50.843Z,100627.00
2018-12-20T10:30:19.598Z,100626.71
2018-12-20T10:32:48.706Z,100629.52
2018-12-20T10:35:17.587Z,100625.55
2018-12-20T10:37:46.718Z,100622.85
2018-12-20T10:40:15.660Z,100618.30
2018-12-20T10:42:44.800Z,100618.59
2018-12-20T10:45:13.699Z,100620.35
2018-12-20T10:47:42.722Z,100625.55
2018-12-20T10:50:11.984Z,100620.45
2018-12-20T10:52:41.866Z,100617.85
2018-12-20T10:55:10.829Z,100616.75
2018-12-20T10:57:39.841Z,100615.64
2018-12-20T11:00:09.314Z,100617.14
2018-12-20T11:02:43.826Z,100618.44
2018-12-20T11:05:17.887Z,100612.39
2018-12-20T11:07:52.198Z,100624.39
2018-12-20T11:10:28.503Z,100624.20
2018-12-20T11:12:59.710Z,100608.59
2018-12-20T11:15:28.658Z,100602.08
2018-12-20T11:17:57.491Z,100607.88
2018-12-20T11:20:26.620Z,100602.47
2018-12-20T11:22:55.850Z,100600.36
2018-12-20T11:25:24.770Z,100603.16
2018-12-20T11:27:53.886Z,100603.70
2018-12-20T11:30:22.754Z,100596.37
2018-12-20T11:32:51.882Z,100597.97
2018-12-20T11:35:20.739Z,100592.47
2018-12-20T11:37:49.860Z,100595.53
2018-12-20T11:40:18.742Z,100595.08
2018-12-20T11:42:47.957Z,100595.37
2018-12-20T11:45:17.251Z,100590.23
2018-12-20T11:47:46.354Z,100587.98
2018-12-20T11:50:18.612Z,100584.83
2018-12-20T11:52:47.822Z,100580.92
2018-12-20T11:55:16.671Z,100582.72
2018-12-20T11:57:45.671Z,100578.71
2018-12-20T12:00:15.093Z,100572.11
2018-12-20T12:02:44.090Z,100584.47
2018-12-20T12:05:13.407Z,100572.69
2018-12-20T12:07:42.346Z,100572.94
2018-12-20T12:10:11.242Z,100565.13
2018-12-20T12:12:40.306Z,100568.22
2018-12-20T12:15:09.468Z,100572.48
2018-12-20T12:17:38.540Z,100574.80
2018-12-20T12:20:08.137Z,100566.73
2018-12-20T12:22:37.246Z,100570.89
2018-12-20T12:25:07.355Z,100570.25
2018-12-20T12:27:36.371Z,100568.30
2018-12-20T12:30:07.070Z,100563.55
2018-12-20T12:32:36.310Z,100565.33
2018-12-20T12:35:06.320Z,100559.37
2018-12-20T12:37:35.460Z,100561.03
2018-12-20T12:40:05.721Z,100559.48
2018-12-20T12:42:34.986Z,100557.79
2018-12-20T12:45:04.048Z,100562.62
2018-12-20T12:48:08.461Z,100558.45
2018-12-20T12:50:37.587Z,100561.22
2018-12-20T12:53:06.503Z,100559.00
2018-12-20T12:55:35.589Z,100564.01
2018-12-20T12:58:05.261Z,100563.00
2018-12-20T13:00:34.389Z,100563.20
2018-12-20T13:03:03.469Z,100564.39
2018-12-20T13:05:32.478Z,100555.74
2018-12-20T13:08:01.772Z,100558.81
2018-12-20T13:10:31.120Z,100560.86
2018-12-20T13:13:00.046Z,100565.97
2018-12-20T13:15:28.827Z,100566.16
2018-12-20T13:17:57.814Z,100566.23
2018-12-20T13:20:26.733Z,100568.00
2018-12-20T13:22:55.670Z,100564.94
2018-12-20T13:25:25.074Z,100559.55
2018-12-20T13:27:54.980Z,100560.09
2018-12-20T13:30:23.926Z,100559.34
2018-12-20T13:32:52.834Z,100562.31
2018-12-20T13:35:21.991Z,100562.86
2018-12-20T13:37:50.957Z,100561.56
2018-12-20T13:40:19.884Z,100552.45
2018-12-20T13:42:49.046Z,100560.65
2018-12-20T13:45:17.867Z,100563.25
2018-12-20T13:47:47.036Z,100558.77
2018-12-20T13:50:15.854Z,100559.52
2018-12-20T13:52:44.774Z,100555.97
2018-12-20T13:55:13.800Z,100559.52
2018-12-20T13:57:42.854Z,100545.77
2018-12-20T14:00:15.182Z,100553.27
2018-12-20T14:02:44.674Z,100553.27
2018-12-20T14:05:13.497Z,100549.47
2018-12-20T14:07:42.652Z,100554.58
2018-12-20T14:10:11.498Z,100546.87
2018-12-20T14:12:40.854Z,100553.83
2018-12-20T14:15:09.947Z,100550.96
2018-12-20T14:17:38.690Z,100554.67
2018-12-20T14:20:08.233Z,100554.47
2018-12-20T14:22:37.373Z,100557.17
2018-12-20T14:25:07.378Z,100555.68
2018-12-20T14:27:36.330Z,100555.97
2018-12-20T14:30:06.994Z,100555.42
2018-12-20T14:32:36.026Z,100560.42
2018-12-20T14:35:05.496Z,100564.48
2018-12-20T14:37:41.513Z,100571.64
2018-12-20T14:40:10.785Z,100568.39
2018-12-20T14:42:39.699Z,100564.84
2018-12-20T14:45:09.111Z,100574.09
2018-12-20T14:47:38.039Z,100568.90
2018-12-20T14:50:08.574Z,100568.90
2018-12-20T14:52:37.491Z,100574.65
2018-12-20T14:55:08.040Z,100574.29
2018-12-20T14:57:37.317Z,100570.00
2018-12-20T15:00:08.531Z,100567.50
2018-12-20T15:02:37.530Z,100569.34
2018-12-20T15:05:07.711Z,100564.70
2018-12-20T15:07:36.774Z,100566.84
2018-12-20T15:10:07.601Z,100570.08
2018-12-20T15:12:36.808Z,100571.09
2018-12-20T15:15:07.033Z,100576.94
2018-12-20T15:17:37.143Z,100570.99
2018-12-20T15:20:08.362Z,100573.89
2018-12-20T15:22:37.467Z,100570.08
2018-12-20T15:25:06.826Z,100576.84
2018-12-20T15:27:35.912Z,100577.29
2018-12-20T15:30:06.742Z,100578.30
2018-12-20T15:32:35.891Z,100578.69
2018-12-20T15:35:05.362Z,100586.94
2018-12-20T15:37:34.551Z,100587.23
2018-12-20T15:40:04.487Z,100581.28
2018-12-20T15:42:33.326Z,100590.17
2018-12-20T15:45:02.390Z,100584.98
2018-12-20T15:47:31.358Z,100588.78
2018-12-20T15:50:00.524Z,100584.79
2018-12-20T15:52:30.888Z,100586.28
2018-12-20T15:54:59.811Z,100590.37
2018-12-20T15:57:28.879Z,100582.56
2018-12-20T15:59:57.802Z,100590.37
2018-12-20T16:02:28.162Z,100590.73
2018-12-20T16:04:57.624Z,100588.88
2018-12-20T16:07:26.846Z,100594.62
2018-12-20T16:09:55.918Z,100593.78
2018-12-20T16:12:24.914Z,100597.22
2018-12-20T16:14:54.137Z,100594.27
2018-12-20T16:17:23.443Z,100599.16
2018-12-20T16:19:52.188Z,100605.02
2018-12-20T16:22:21.269Z,100613.27
2018-12-20T16:24:50.174Z,100615.61
2018-12-20T16:27:19.169Z,100620.41
2018-12-20T16:29:48.166Z,100618.36
2018-12-20T16:32:17.235Z,100614.36
2018-12-20T16:34:46.267Z,100616.52
2018-12-20T16:37:15.138Z,100612.11
2018-12-20T16:39:44.339Z,100614.25
2018-12-20T16:42:13.206Z,100618.00
2018-12-20T16:44:42.118Z,100615.66
2018-12-20T16:47:11.150Z,100625.25
2018-12-20T16:49:41.018Z,100629.14
2018-12-20T16:52:10.110Z,100632.20
2018-12-20T16:54:39.011Z,100629.05
2018-12-20T16:57:08.358Z,100634.16
2018-12-20T16:59:37.301Z,100627.02
2018-12-20T17:02:07.298Z,100632.70
2018-12-20T17:04:36.822Z,100627.11
2018-12-20T17:07:05.985Z,100625.91
2018-12-20T17:09:35.519Z,100628.05
2018-12-20T17:12:06.647Z,100628.05
2018-12-20T17:14:37.732Z,100618.56
2018-12-20T17:17:06.479Z,100622.65
2018-12-20T17:19:36.914Z,100625.61
2018-12-20T17:22:09.635Z,100619.84
2018-12-20T17:24:42.956Z,100616.84
2018-12-20T17:27:20.607Z,100618.36
2018-12-20T17:29:50.412Z,100611.50
2018-12-20T17:32:21.835Z,100617.45
2018-12-20T17:34:53.683Z,100618.20
2018-12-20T17:37:22.590Z,100622.76
2018-12-20T17:39:51.587Z,100616.91
2018-12-20T17:42:20.575Z,100616.36
2018-12-20T17:45:00.998Z,100615.19
2018-12-20T17:47:31.854Z,100616.48
2018-12-20T17:50:00.834Z,100620.59
2018-12-20T17:52:31.746Z,100628.20
2018-12-20T17:55:00.763Z,100623.46
2018-12-20T17:57:29.894Z,100625.91
2018-12-20T17:59:59.502Z,100621.70
2018-12-20T18:02:28.492Z,100618.20
2018-12-20T18:05:06.567Z,100612.16
2018-12-20T18:07:29.547Z,100616.91
2018-12-20T18:09:58.535Z,100612.81
2018-12-20T18:12:27.543Z,100605.47
2018-12-20T18:14:56.527Z,100607.63
2018-12-20T18:17:25.247Z,100597.31
2018-12-20T18:19:55.122Z,100599.07
2018-12-20T18:22:24.146Z,100598.37
2018-12-20T18:24:53.431Z,100592.23
2018-12-20T18:27:22.481Z,100590.73
2018-12-20T18:29:51.402Z,100592.42
2018-12-20T18:32:20.406Z,100599.28
2018-12-20T18:34:49.632Z,100594.83
2018-12-20T18:37:18.754Z,100594.28
2018-12-20T18:39:47.695Z,100600.53
2018-12-20T18:42:16.532Z,100604.54
2018-12-20T18:44:45.358Z,100599.49
2018-12-20T18:47:14.515Z,100605.38
2018-12-20T18:49:47.502Z,100607.50
2018-12-20T18:52:14.552Z,100606.20
2018-12-20T18:54:43.509Z,100609.48
2018-12-20T18:57:12.843Z,100604.55
2018-12-20T18:59:42.556Z,100615.34
2018-12-20T19:02:11.770Z,100612.19
2018-12-20T19:04:41.369Z,100604.84
2018-12-20T19:07:10.667Z,100605.09
2018-12-20T19:09:39.672Z,100607.89
2018-12-20T19:12:08.670Z,100600.34
2018-12-20T19:14:37.580Z,100610.59
2018-12-20T19:17:06.631Z,100607.50
2018-12-20T19:19:35.641Z,100605.38
2018-12-20T19:22:05.229Z,100609.94
2018-12-20T19:24:34.150Z,100598.23
2018-12-20T19:27:03.231Z,100603.44
2018-12-20T19:29:32.754Z,100603.25
2018-12-20T19:32:02.499Z,100600.20
2018-12-20T19:34:31.671Z,100597.50
2018-12-20T19:37:00.781Z,100608.66
2018-12-20T19:39:30.016Z,100601.34
2018-12-20T19:42:03.142Z,100605.98
2018-12-20T19:44:31.927Z,100596.34
2018-12-20T19:47:00.911Z,100604.59
2018-12-20T19:49:29.919Z,100598.45
2018-12-20T19:51:58.903Z,100603.95
2018-12-20T19:54:27.899Z,100597.35
2018-12-20T19:56:56.907Z,100597.09
2018-12-20T19:59:25.887Z,100607.39
2018-12-20T20:01:54.963Z,100598.75
2018-12-20T20:04:47.665Z,100604.90
2018-12-20T20:07:30.104Z,100600.09
2018-12-20T20:10:00.972Z,100595.70
2018-12-20T20:12:29.939Z,100597.69
2018-12-20T20:14:58.843Z,100592.94
2018-12-20T20:17:27.935Z,100590.34
2018-12-20T20:19:59.909Z,100591.73
2018-12-20T20:22:27.856Z,100594.63
2018-12-20T20:24:56.973Z,100596.98
2018-12-20T20:27:26.046Z,100600.48
2018-12-20T20:29:55.341Z,100595.94
2018-12-20T20:32:24.578Z,100594.08
2018-12-20T20:34:53.567Z,100598.34
2018-12-20T20:37:22.642Z,100600.39
2018-12-20T20:39:51.534Z,100605.69
2018-12-20T20:42:20.623Z,100612.09
2018-12-20T20:44:49.627Z,100607.09
2018-12-20T20:47:18.528Z,100608.39
2018-12-20T20:49:47.883Z,100598.34
2018-12-20T20:52:17.446Z,100603.48
2018-12-20T20:54:46.561Z,100609.59
2018-12-20T20:57:15.422Z,100606.99
2018-12-20T20:59:50.767Z,100608.95
2018-12-20T21:02:16.238Z,100608.95
2018-12-20T21:04:45.234Z,100605.53
2018-12-20T21:07:14.229Z,100613.23
2018-12-20T21:09:49.766Z,100607.64
2018-12-20T21:12:22.785Z,100602.93
2018-12-20T21:14:52.476Z,100609.34
2018-12-20T21:17:20.870Z,100595.58
2018-12-20T21:20:06.572Z,100600.23
2018-12-20T21:22:35.809Z,100592.13
2018-12-20T21:25:05.730Z,100591.22
2018-12-20T21:27:35.360Z,100586.08
2018-12-20T21:30:05.713Z,100580.88
2018-12-20T21:32:34.885Z,100581.27
2018-12-20T21:35:04.009Z,100583.77
2018-12-20T21:37:39.647Z,100577.08
2018-12-20T21:40:09.182Z,100572.42
2018-12-20T21:42:38.202Z,100577.08
2018-12-20T21:45:08.611Z,100573.56
2018-12-20T21:47:38.406Z,100568.81
2018-12-20T21:50:09.808Z,100571.03
2018-12-20T21:52:39.648Z,100573.63
2018-12-20T21:55:10.214Z,100574.02
2018-12-20T21:57:39.258Z,100567.41
2018-12-20T22:00:10.036Z,100583.77
2018-12-20T22:02:39.399Z,100591.12
2018-12-20T22:05:08.450Z,100584.16
2018-12-20T22:07:38.283Z,100579.77
2018-12-20T22:10:07.997Z,100568.36
2018-12-20T22:12:36.862Z,100575.13
2018-12-20T22:15:06.243Z,100580.52
2018-12-20T22:17:35.239Z,100586.86
2018-12-20T22:20:05.705Z,100578.96
2018-12-20T22:22:34.902Z,100581.17
2018-12-20T22:25:05.654Z,100579.52
2018-12-20T22:27:35.194Z,100581.08
2018-12-20T22:30:04.382Z,100575.31
2018-12-20T22:32:33.334Z,100579.61
2018-12-20T22:35:02.409Z,100582.31
2018-12-20T22:37:31.397Z,100581.17
2018-12-20T22:40:00.399Z,100575.13
2018-12-20T22:42:30.034Z,100580.81
2018-12-20T22:44:58.995Z,100572.81
2018-12-20T22:47:28.010Z,100582.83
2018-12-20T22:49:57.593Z,100578.57
2018-12-20T22:52:30.367Z,100589.53
2018-12-20T22:54:59.488Z,100588.03
2018-12-20T22:57:28.561Z,100579.55
2018-12-20T22:59:58.192Z,100585.30
2018-12-20T23:02:27.078Z,100585.29
2018-12-20T23:04:56.072Z,100580.25
2018-12-20T23:07:25.079Z,100574.78
2018-12-20T23:09:54.051Z,100565.48
2018-12-20T23:12:23.816Z,100560.75
2018-12-20T23:14:53.411Z,100564.45
2018-12-20T23:17:22.426Z,100554.59
2018-12-20T23:19:51.287Z,100562.49
2018-12-20T23:22:20.243Z,100561.00
2018-12-20T23:24:49.308Z,100558.20
2018-12-20T23:27:18.239Z,100560.70
2018-12-20T23:29:47.307Z,100554.95
2018-12-20T23:32:16.303Z,100561.09
2018-12-20T23:34:45.206Z,100551.24
2018-12-20T23:37:14.291Z,100549.00
2018-12-20T23:39:43.283Z,100546.50
2018-12-20T23:42:12.615Z,100539.15
2018-12-20T23:44:41.500Z,100531.91
2018-12-20T23:47:10.639Z,100532.30
2018-12-20T23:49:39.547Z,100535.64
2018-12-20T23:52:08.551Z,100534.70
2018-12-20T23:54:37.591Z,100542.30
2018-12-20T23:57:06.456Z,100530.54
2018-12-20T23:59:35.510Z,100519.66
